createdAt,value
2022-12-11T00:00:44.585Z,101109.28
2022-12-11T00:03:15.620Z,101115.31
2022-12-11T00:05:43.713Z,101112.72
2022-12-11T00:08:10.864Z,101103.28
2022-12-11T00:10:38.141Z,101109.28
2022-12-11T00:13:05.046Z,101101.50
2022-12-11T00:15:31.563Z,101106.72
2022-12-11T00:17:57.909Z,101104.13
2022-12-11T00:20:24.727Z,101104.06
2022-12-11T00:22:51.169Z,101102.31
2022-12-11T00:25:17.719Z,101103.19
2022-12-11T00:27:46.712Z,101099.75
2022-12-11T00:30:14.787Z,101102.34
2022-12-11T00:32:41.157Z,101106.66
2022-12-11T00:35:08.228Z,101109.28
2022-12-11T00:37:35.201Z,101112.72
2022-12-11T00:40:01.636Z,101105.00
2022-12-11T00:42:28.091Z,101109.31
2022-12-11T00:44:56.260Z,101099.88
2022-12-11T00:47:22.710Z,101104.16
2022-12-11T00:49:50.162Z,101105.03
2022-12-11T00:52:17.978Z,101104.16
2022-12-11T00:54:44.983Z,101108.44
2022-12-11T00:57:11.489Z,101105.88
2022-12-11T00:59:38.430Z,101099.88
2022-12-11T01:02:04.802Z,101097.28
2022-12-11T01:04:31.340Z,101104.16
2022-12-11T01:06:57.734Z,101103.31
2022-12-11T01:09:42.620Z,101097.28
2022-12-11T01:12:09.138Z,101102.44
2022-12-11T01:14:36.123Z,101097.28
2022-12-11T01:17:02.623Z,101087.84
2022-12-11T01:19:29.179Z,101089.56
2022-12-11T01:21:55.765Z,101096.44
2022-12-11T01:24:22.435Z,101093.00
2022-12-11T01:26:48.876Z,101110.19
2022-12-11T01:29:15.231Z,101100.72
2022-12-11T01:31:41.737Z,101104.16
2022-12-11T01:34:08.081Z,101102.44
2022-12-11T01:36:34.641Z,101098.13
2022-12-11T01:39:01.007Z,101107.59
2022-12-11T01:41:27.368Z,101105.03
2022-12-11T01:44:03.917Z,101108.44
2022-12-11T01:46:32.949Z,101114.47
2022-12-11T01:49:01.838Z,101107.63
2022-12-11T01:51:31.129Z,101115.34
2022-12-11T01:54:02.498Z,101112.78
2022-12-11T01:56:32.744Z,101113.59
2022-12-11T01:59:07.098Z,101106.66
2022-12-11T02:01:46.012Z,101113.50
2022-12-11T02:04:15.857Z,101114.38
2022-12-11T02:06:45.474Z,101110.94
2022-12-11T02:09:18.459Z,101101.56
2022-12-11T02:12:03.127Z,101109.31
2022-12-11T02:14:38.463Z,101105.84
2022-12-11T02:17:16.775Z,101112.69
2022-12-11T02:20:03.923Z,101111.78
2022-12-11T02:22:52.475Z,101110.06
2022-12-11T02:25:34.746Z,101108.31
2022-12-11T02:28:19.974Z,101104.03
2022-12-11T02:30:55.172Z,101099.75
2022-12-11T02:33:30.823Z,101104.06
2022-12-11T02:35:57.751Z,101100.63
2022-12-11T02:38:29.980Z,101098.88
2022-12-11T02:41:00.470Z,101102.31
2022-12-11T02:43:28.780Z,101107.47
2022-12-11T02:45:57.330Z,101103.19
2022-12-11T02:48:24.343Z,101099.72
2022-12-11T02:50:56.063Z,101099.72
2022-12-11T02:53:26.180Z,101084.25
2022-12-11T02:56:02.516Z,101088.56
2022-12-11T02:58:32.737Z,101083.41
2022-12-11T03:00:59.330Z,101098.88
2022-12-11T03:03:28.168Z,101096.31
2022-12-11T03:05:55.239Z,101098.88
2022-12-11T03:08:21.698Z,101104.03
2022-12-11T03:10:48.092Z,101104.88
2022-12-11T03:13:19.782Z,101102.25
2022-12-11T03:16:09.975Z,101091.94
2022-12-11T03:18:44.078Z,101094.50
2022-12-11T03:21:19.803Z,101098.81
2022-12-11T03:23:55.248Z,101092.78
2022-12-11T03:26:24.233Z,101097.06
2022-12-11T03:29:00.696Z,101100.53
2022-12-11T03:31:39.215Z,101101.34
2022-12-11T03:34:16.401Z,101097.06
2022-12-11T03:36:44.735Z,101100.50
2022-12-11T03:39:16.988Z,101092.75
2022-12-11T03:41:45.813Z,101096.19
2022-12-11T03:44:12.886Z,101096.16
2022-12-11T03:46:41.070Z,101094.41
2022-12-11T03:49:10.883Z,101098.66
2022-12-11T03:51:38.037Z,101098.69
2022-12-11T03:54:05.294Z,101091.88
2022-12-11T03:56:34.193Z,101096.19
2022-12-11T03:59:00.615Z,101102.22
2022-12-11T04:01:27.468Z,101096.19
2022-12-11T04:03:54.139Z,101089.31
2022-12-11T04:06:20.620Z,101098.78
2022-12-11T04:08:47.058Z,101093.59
2022-12-11T04:11:31.929Z,101089.31
2022-12-11T04:14:16.904Z,101085.03
2022-12-11T04:16:43.326Z,101085.88
2022-12-11T04:19:28.664Z,101084.19
2022-12-11T04:22:33.200Z,101083.31
2022-12-11T04:25:01.002Z,101085.03
2022-12-11T04:27:46.103Z,101082.44
2022-12-11T04:30:15.460Z,101074.72
2022-12-11T04:32:41.845Z,101075.56
2022-12-11T04:35:10.255Z,101077.28
2022-12-11T04:37:38.144Z,101077.28
2022-12-11T04:40:06.970Z,101079.03
2022-12-11T04:42:33.487Z,101076.44
2022-12-11T04:44:59.915Z,101080.72
2022-12-11T04:47:26.369Z,101080.72
2022-12-11T04:49:52.824Z,101074.72
2022-12-11T04:52:19.394Z,101077.28
2022-12-11T04:54:45.890Z,101081.59
2022-12-11T04:57:12.285Z,101073.84
2022-12-11T04:59:39.011Z,101069.53
2022-12-11T05:02:05.658Z,101077.25
2022-12-11T05:04:33.775Z,101076.41
2022-12-11T05:07:00.838Z,101071.25
2022-12-11T05:09:28.349Z,101065.25
2022-12-11T05:11:54.767Z,101076.41
2022-12-11T05:14:21.635Z,101074.69
2022-12-11T05:16:48.298Z,101067.78
2022-12-11T05:19:14.794Z,101070.34
2022-12-11T05:21:41.171Z,101067.75
2022-12-11T05:24:07.861Z,101083.25
2022-12-11T05:26:34.217Z,101076.31
2022-12-11T05:29:00.842Z,101076.22
2022-12-11T05:31:27.674Z,101069.31
2022-12-11T05:33:54.525Z,101079.56
2022-12-11T05:36:29.076Z,101071.84
2022-12-11T05:38:56.941Z,101067.50
2022-12-11T05:41:25.433Z,101067.50
2022-12-11T05:43:52.187Z,101067.50
2022-12-11T05:46:24.305Z,101072.63
2022-12-11T05:48:53.731Z,101071.69
2022-12-11T05:51:20.886Z,101067.38
2022-12-11T05:53:48.777Z,101067.38
2022-12-11T05:56:18.362Z,101063.94
2022-12-11T05:58:45.978Z,101064.72
2022-12-11T06:01:21.963Z,101063.84
2022-12-11T06:03:48.506Z,101059.53
2022-12-11T06:06:15.972Z,101064.69
2022-12-11T06:08:42.396Z,101059.47
2022-12-11T06:11:09.171Z,101055.97
2022-12-11T06:13:35.546Z,101058.47
2022-12-11T06:16:06.594Z,101061.84
2022-12-11T06:18:37.890Z,101072.13
2022-12-11T06:21:11.445Z,101072.09
2022-12-11T06:23:37.817Z,101072.94
2022-12-11T06:26:04.508Z,101069.47
2022-12-11T06:28:30.851Z,101067.72
2022-12-11T06:31:01.539Z,101071.16
2022-12-11T06:33:28.232Z,101079.69
2022-12-11T06:35:54.692Z,101078.78
2022-12-11T06:38:21.202Z,101072.75
2022-12-11T06:40:55.464Z,101076.13
2022-12-11T06:43:22.354Z,101077.81
2022-12-11T06:45:48.769Z,101067.44
2022-12-11T06:48:15.340Z,101075.19
2022-12-11T06:50:41.756Z,101068.28
2022-12-11T06:53:08.099Z,101069.97
2022-12-11T06:55:36.067Z,101065.63
2022-12-11T06:58:02.859Z,101075.81
2022-12-11T07:00:30.629Z,101076.63
2022-12-11T07:02:56.980Z,101079.97
2022-12-11T07:05:23.698Z,101078.13
2022-12-11T07:07:50.150Z,101084.09
2022-12-11T07:10:16.723Z,101084.97
2022-12-11T07:12:43.158Z,101092.66
2022-12-11T07:15:10.360Z,101089.22
2022-12-11T07:17:36.946Z,101091.75
2022-12-11T07:20:04.429Z,101094.31
2022-12-11T07:22:30.957Z,101096.81
2022-12-11T07:24:57.325Z,101098.53
2022-12-11T07:27:23.799Z,101107.94
2022-12-11T07:29:51.039Z,101111.34
2022-12-11T07:32:17.619Z,101114.75
2022-12-11T07:34:48.582Z,101119.03
2022-12-11T07:37:18.323Z,101122.41
2022-12-11T07:39:44.858Z,101115.47
2022-12-11T07:42:11.406Z,101120.59
2022-12-11T07:44:37.966Z,101118.03
2022-12-11T07:47:04.486Z,101128.31
2022-12-11T07:49:30.945Z,101122.31
2022-12-11T07:51:57.356Z,101131.75
2022-12-11T07:54:23.694Z,101125.78
2022-12-11T07:56:53.731Z,101126.66
2022-12-11T07:59:21.079Z,101126.69
2022-12-11T08:01:47.901Z,101130.13
2022-12-11T08:04:15.631Z,101128.47
2022-12-11T08:06:42.723Z,101114.78
2022-12-11T08:09:17.499Z,101113.94
2022-12-11T08:11:51.678Z,101108.81
2022-12-11T08:14:19.440Z,101109.66
2022-12-11T08:16:46.062Z,101112.22
2022-12-11T08:19:13.216Z,101124.25
2022-12-11T08:21:40.284Z,101117.41
2022-12-11T08:24:07.793Z,101116.63
2022-12-11T08:26:34.154Z,101116.63
2022-12-11T08:29:01.899Z,101116.63
2022-12-11T08:31:29.383Z,101117.50
2022-12-11T08:33:56.881Z,101120.09
2022-12-11T08:36:23.241Z,101124.41
2022-12-11T08:38:50.631Z,101110.69
2022-12-11T08:41:19.945Z,101122.78
2022-12-11T08:43:46.784Z,101118.50
2022-12-11T08:46:14.099Z,101115.09
2022-12-11T08:48:42.227Z,101117.72
2022-12-11T08:51:13.761Z,101104.91
2022-12-11T08:53:40.291Z,101106.69
2022-12-11T08:56:09.586Z,101097.25
2022-12-11T08:58:36.261Z,101098.97
2022-12-11T09:01:24.433Z,101099.91
2022-12-11T09:03:52.846Z,101101.66
2022-12-11T09:06:21.538Z,101092.25
2022-12-11T09:08:52.538Z,101091.47
2022-12-11T09:11:25.788Z,101088.94
2022-12-11T09:13:52.427Z,101079.50
2022-12-11T09:16:21.836Z,101079.50
2022-12-11T09:18:49.987Z,101084.69
2022-12-11T09:21:19.683Z,101083.91
2022-12-11T09:23:46.348Z,101088.22
2022-12-11T09:26:15.781Z,101084.78
2022-12-11T09:28:46.326Z,101080.53
2022-12-11T09:31:23.484Z,101085.75
2022-12-11T09:33:52.069Z,101072.91
2022-12-11T09:36:18.596Z,101072.09
2022-12-11T09:38:45.326Z,101071.31
2022-12-11T09:41:25.739Z,101065.31
2022-12-11T09:44:11.010Z,101069.66
2022-12-11T09:46:40.636Z,101064.56
2022-12-11T09:49:17.666Z,101062.88
2022-12-11T09:51:50.026Z,101062.09
2022-12-11T09:54:16.400Z,101062.13
2022-12-11T09:56:51.297Z,101064.78
2022-12-11T09:59:26.798Z,101076.00
2022-12-11T10:02:02.085Z,101067.50
2022-12-11T10:05:04.076Z,101069.31
2022-12-11T10:07:41.071Z,101072.91
2022-12-11T10:10:32.700Z,101069.97
2022-12-11T10:13:27.426Z,101062.19
2022-12-11T10:16:15.506Z,101059.28
2022-12-11T10:18:42.242Z,101056.03
2022-12-11T10:21:10.759Z,101048.38
2022-12-11T10:23:50.766Z,101049.25
2022-12-11T10:26:20.770Z,101044.94
2022-12-11T10:28:47.828Z,101041.47
2022-12-11T10:31:28.562Z,101042.31
2022-12-11T10:34:04.144Z,101044.84
2022-12-11T10:36:34.367Z,101032.69
2022-12-11T10:39:01.543Z,101026.53
2022-12-11T10:41:38.996Z,101028.97
2022-12-11T10:44:23.670Z,101021.97
2022-12-11T10:47:04.590Z,101027.03
2022-12-11T10:49:33.771Z,101014.06
2022-12-11T10:52:01.931Z,101010.50
2022-12-11T10:54:39.729Z,101008.84
2022-12-11T10:57:09.652Z,101005.41
2022-12-11T10:59:49.286Z,101013.09
2022-12-11T11:02:24.786Z,101022.56
2022-12-11T11:04:51.782Z,101020.03
2022-12-11T11:07:18.078Z,101025.13
2022-12-11T11:09:44.659Z,101027.56
2022-12-11T11:12:26.344Z,101018.94
2022-12-11T11:14:59.891Z,101024.06
2022-12-11T11:17:29.576Z,101024.13
2022-12-11T11:20:12.071Z,101019.97
2022-12-11T11:22:46.859Z,101022.03
2022-12-11T11:25:19.767Z,101019.66
2022-12-11T11:27:54.687Z,101015.44
2022-12-11T11:30:30.214Z,101001.69
2022-12-11T11:33:02.221Z,101006.00
2022-12-11T11:35:30.700Z,100997.31
2022-12-11T11:38:09.239Z,100993.78
2022-12-11T11:40:45.553Z,100988.53
2022-12-11T11:43:18.018Z,100986.75
2022-12-11T11:45:52.545Z,100985.91
2022-12-11T11:48:28.852Z,100978.19
2022-12-11T11:50:57.884Z,100972.22
2022-12-11T11:53:31.729Z,100975.00
2022-12-11T11:56:18.402Z,100970.38
2022-12-11T11:59:03.197Z,100961.06
2022-12-11T12:01:30.260Z,100959.41
2022-12-11T12:03:57.114Z,100958.81
2022-12-11T12:07:05.547Z,100957.34
2022-12-11T12:09:51.768Z,100970.50
2022-12-11T12:12:34.148Z,100966.25
2022-12-11T12:15:21.720Z,100972.38
2022-12-11T12:17:56.199Z,100970.66
2022-12-11T12:20:50.758Z,100971.53
2022-12-11T12:23:44.703Z,100961.16
2022-12-11T12:26:21.243Z,100971.50
2022-12-11T12:29:08.654Z,100967.22
2022-12-11T12:31:55.676Z,100973.25
2022-12-11T12:34:48.373Z,100967.22
2022-12-11T12:37:30.151Z,100976.72
2022-12-11T12:40:34.104Z,100974.97
2022-12-11T12:43:37.920Z,100981.88
2022-12-11T12:46:29.299Z,100974.94
2022-12-11T12:48:58.854Z,100979.28
2022-12-11T12:51:27.166Z,100980.16
2022-12-11T12:53:57.166Z,100981.03
2022-12-11T12:56:24.780Z,100975.00
2022-12-11T12:58:51.565Z,100974.13
2022-12-11T13:01:27.282Z,100979.31
2022-12-11T13:04:05.675Z,100974.16
2022-12-11T13:06:42.183Z,100970.69
2022-12-11T13:09:13.587Z,100975.84
2022-12-11T13:11:39.957Z,100968.94
2022-12-11T13:14:21.690Z,100970.66
2022-12-11T13:16:50.437Z,100968.03
2022-12-11T13:19:23.752Z,100974.91
2022-12-11T13:22:13.174Z,100973.16
2022-12-11T13:24:59.624Z,100969.66
2022-12-11T13:27:37.711Z,100971.38
2022-12-11T13:30:23.193Z,100972.19
2022-12-11T13:32:59.935Z,100981.69
2022-12-11T13:35:26.943Z,100978.19
2022-12-11T13:37:56.724Z,100978.19
2022-12-11T13:40:27.508Z,100985.09
2022-12-11T13:43:03.850Z,100974.75
2022-12-11T13:45:45.099Z,100985.09
2022-12-11T13:48:28.576Z,100985.91
2022-12-11T13:50:56.797Z,100982.47
2022-12-11T13:53:23.830Z,100986.75
2022-12-11T13:56:03.965Z,100978.97
2022-12-11T13:58:35.033Z,100978.88
2022-12-11T14:01:13.269Z,100981.34
2022-12-11T14:03:52.972Z,100980.44
2022-12-11T14:06:19.613Z,100983.81
2022-12-11T14:08:49.327Z,100987.22
2022-12-11T14:11:23.729Z,100981.19
2022-12-11T14:13:50.467Z,100981.13
2022-12-11T14:16:22.964Z,100984.56
2022-12-11T14:18:51.666Z,100996.59
2022-12-11T14:21:20.911Z,100992.25
2022-12-11T14:23:56.193Z,100997.41
2022-12-11T14:26:24.450Z,101002.56
2022-12-11T14:28:51.383Z,101002.53
2022-12-11T14:31:38.838Z,101000.81
2022-12-11T14:34:13.690Z,101005.13
2022-12-11T14:36:41.815Z,101008.56
2022-12-11T14:39:16.650Z,101008.56
2022-12-11T14:41:50.402Z,101014.59
2022-12-11T14:44:19.863Z,101004.28
2022-12-11T14:46:54.537Z,101000.84
2022-12-11T14:49:40.236Z,101003.44
2022-12-11T14:52:15.042Z,101005.16
2022-12-11T14:54:47.288Z,101007.72
2022-12-11T14:57:20.306Z,101002.53
2022-12-11T14:59:49.306Z,101004.25
2022-12-11T15:02:39.774Z,101005.94
2022-12-11T15:05:14.688Z,101002.50
2022-12-11T15:07:43.636Z,101005.06
2022-12-11T15:10:25.065Z,101001.63
2022-12-11T15:12:52.116Z,100993.88
2022-12-11T15:15:19.329Z,101005.06
2022-12-11T15:17:52.537Z,101009.34
2022-12-11T15:20:28.331Z,101002.47
2022-12-11T15:22:58.937Z,101008.50
2022-12-11T15:25:28.038Z,101000.75
2022-12-11T15:27:57.855Z,101010.22
2022-12-11T15:30:34.390Z,101012.81
2022-12-11T15:33:10.271Z,101011.94
2022-12-11T15:35:38.908Z,101012.81
2022-12-11T15:38:06.109Z,101004.19
2022-12-11T15:40:32.640Z,101009.34
2022-12-11T15:43:01.953Z,101004.19
2022-12-11T15:45:28.912Z,101018.81
2022-12-11T15:47:56.027Z,101009.34
2022-12-11T15:50:27.642Z,101009.34
2022-12-11T15:52:55.176Z,101011.06
2022-12-11T15:55:23.743Z,101003.31
2022-12-11T15:57:57.956Z,101005.03
2022-12-11T16:00:24.801Z,100999.88
2022-12-11T16:02:52.012Z,100997.31
2022-12-11T16:05:19.622Z,101001.59
2022-12-11T16:07:46.197Z,100999.03
2022-12-11T16:10:17.846Z,100997.31
2022-12-11T16:12:44.782Z,100991.31
2022-12-11T16:15:14.454Z,100995.59
2022-12-11T16:17:42.774Z,100993.88
2022-12-11T16:20:11.417Z,100992.13
2022-12-11T16:22:37.866Z,101000.69
2022-12-11T16:25:04.600Z,100997.25
2022-12-11T16:27:31.122Z,101002.41
2022-12-11T16:29:57.563Z,101003.31
2022-12-11T16:32:24.007Z,101006.75
2022-12-11T16:34:50.419Z,101007.63
2022-12-11T16:37:16.964Z,101009.34
2022-12-11T16:39:45.876Z,101000.75
2022-12-11T16:42:12.308Z,100999.84
2022-12-11T16:44:43.866Z,100996.38
2022-12-11T16:47:11.589Z,100997.25
2022-12-11T16:49:38.057Z,100993.81
2022-12-11T16:52:04.596Z,100996.41
2022-12-11T16:54:31.169Z,100999.84
2022-12-11T16:56:57.503Z,101002.41
2022-12-11T16:59:23.968Z,101004.19
2022-12-11T17:01:50.587Z,101006.75
2022-12-11T17:04:17.178Z,101005.91
2022-12-11T17:06:43.596Z,101007.63
2022-12-11T17:09:10.955Z,101011.06
2022-12-11T17:11:37.550Z,101010.22
2022-12-11T17:14:03.935Z,101010.19
2022-12-11T17:16:30.422Z,101010.22
2022-12-11T17:18:58.841Z,101015.38
2022-12-11T17:21:25.207Z,101012.81
2022-12-11T17:23:51.771Z,101010.22
2022-12-11T17:26:18.798Z,101019.69
2022-12-11T17:28:45.391Z,101022.25
2022-12-11T17:31:17.899Z,101012.81
2022-12-11T17:33:46.264Z,101022.25
2022-12-11T17:36:19.401Z,101019.69
2022-12-11T17:38:47.971Z,101020.53
2022-12-11T17:41:20.473Z,101008.50
2022-12-11T17:43:48.577Z,101006.84
2022-12-11T17:46:14.973Z,101001.69
2022-12-11T17:48:41.453Z,100999.09
2022-12-11T17:51:09.571Z,101006.78
2022-12-11T17:53:37.183Z,100998.09
2022-12-11T17:56:06.685Z,101002.38
2022-12-11T17:58:33.826Z,100995.44
2022-12-11T18:01:00.679Z,100997.16
2022-12-11T18:03:28.140Z,100993.66
2022-12-11T18:05:56.848Z,100998.81
2022-12-11T18:08:26.113Z,101008.28
2022-12-11T18:10:53.874Z,101001.44
2022-12-11T18:13:21.893Z,101004.03
2022-12-11T18:16:00.516Z,101000.59
2022-12-11T18:18:28.030Z,101006.63
2022-12-11T18:20:54.531Z,101003.19
2022-12-11T18:23:21.101Z,101007.50
2022-12-11T18:25:47.742Z,101011.84
2022-12-11T18:28:14.292Z,101016.09
2022-12-11T18:30:40.653Z,101016.16
2022-12-11T18:33:07.146Z,101025.63
2022-12-11T18:35:33.506Z,101027.34
2022-12-11T18:37:59.894Z,101027.34
2022-12-11T18:40:26.361Z,101018.75
2022-12-11T18:42:52.716Z,101027.41
2022-12-11T18:45:20.081Z,101023.97
2022-12-11T18:47:47.166Z,101017.94
2022-12-11T18:50:14.239Z,101012.81
2022-12-11T18:52:40.592Z,101015.38
2022-12-11T18:55:07.390Z,101014.53
2022-12-11T18:57:33.765Z,101020.53
2022-12-11T19:00:07.084Z,101011.06
2022-12-11T19:02:34.595Z,101014.50
2022-12-11T19:05:01.067Z,101019.66
2022-12-11T19:07:28.596Z,101018.81
2022-12-11T19:09:55.035Z,101016.22
2022-12-11T19:12:21.513Z,101021.38
2022-12-11T19:14:47.902Z,101023.13
2022-12-11T19:17:14.486Z,101030.00
2022-12-11T19:19:40.977Z,101038.59
2022-12-11T19:22:07.571Z,101030.84
2022-12-11T19:24:33.945Z,101038.59
2022-12-11T19:27:00.338Z,101033.44
2022-12-11T19:29:29.153Z,101036.03
2022-12-11T19:31:56.366Z,101041.19
2022-12-11T19:34:23.112Z,101035.16
2022-12-11T19:36:49.843Z,101036.88
2022-12-11T19:39:17.043Z,101042.91
2022-12-11T19:41:43.789Z,101036.03
2022-12-11T19:44:10.448Z,101038.59
2022-12-11T19:46:36.908Z,101031.72
2022-12-11T19:49:03.864Z,101026.56
2022-12-11T19:51:38.250Z,101034.31
2022-12-11T19:54:05.961Z,101036.88
2022-12-11T19:56:33.471Z,101027.44
2022-12-11T19:59:02.949Z,101032.59
2022-12-11T20:01:31.667Z,101027.44
2022-12-11T20:04:01.285Z,101024.00
2022-12-11T20:06:29.895Z,101024.00
2022-12-11T20:08:56.504Z,101022.25
2022-12-11T20:11:23.115Z,101018.81
2022-12-11T20:13:50.473Z,101019.66
2022-12-11T20:16:33.375Z,101019.63
2022-12-11T20:19:05.955Z,101023.03
2022-12-11T20:21:32.404Z,101018.66
2022-12-11T20:23:58.775Z,101022.09
2022-12-11T20:26:25.373Z,101024.66
2022-12-11T20:28:52.488Z,101032.41
2022-12-11T20:31:22.743Z,101032.41
2022-12-11T20:33:49.917Z,101028.97
2022-12-11T20:36:18.366Z,101036.72
2022-12-11T20:38:45.130Z,101034.16
2022-12-11T20:41:13.753Z,101031.56
2022-12-11T20:43:41.034Z,101028.97
2022-12-11T20:46:09.654Z,101028.97
2022-12-11T20:48:39.276Z,101040.13
2022-12-11T20:51:07.531Z,101034.16
2022-12-11T20:53:35.508Z,101031.56
2022-12-11T20:56:02.793Z,101037.59
2022-12-11T20:58:29.266Z,101033.34
2022-12-11T21:00:55.847Z,101034.16
2022-12-11T21:03:22.309Z,101033.28
2022-12-11T21:05:48.788Z,101034.13
2022-12-11T21:08:15.304Z,101028.09
2022-12-11T21:10:43.594Z,101037.56
2022-12-11T21:13:10.453Z,101041.88
2022-12-11T21:15:37.997Z,101029.84
2022-12-11T21:18:06.271Z,101033.31
2022-12-11T21:20:33.673Z,101029.91
2022-12-11T21:23:00.120Z,101034.16
2022-12-11T21:25:26.601Z,101035.06
2022-12-11T21:27:53.036Z,101041.09
2022-12-11T21:30:20.506Z,101032.50
2022-12-11T21:32:47.448Z,101035.94
2022-12-11T21:35:14.181Z,101035.09
2022-12-11T21:37:41.860Z,101028.22
2022-12-11T21:40:09.817Z,101037.69
2022-12-11T21:42:36.276Z,101027.41
2022-12-11T21:47:50.518Z,101036.00
2022-12-11T21:50:17.894Z,101041.97
2022-12-11T21:52:44.933Z,101041.09
2022-12-11T21:55:12.343Z,101038.53
2022-12-11T21:57:38.910Z,101035.09
2022-12-11T22:00:05.874Z,101036.81
2022-12-11T22:02:40.998Z,101039.41
2022-12-11T22:05:08.473Z,101040.31
2022-12-11T22:07:34.957Z,101032.56
2022-12-11T22:10:02.443Z,101048.91
2022-12-11T22:12:29.173Z,101042.88
2022-12-11T22:14:56.119Z,101045.41
2022-12-11T22:17:23.098Z,101037.66
2022-12-11T22:19:51.825Z,101039.41
2022-12-11T22:22:19.167Z,101050.59
2022-12-11T22:24:45.989Z,101048.00
2022-12-11T22:27:12.408Z,101042.84
2022-12-11T22:29:38.784Z,101054.03
2022-12-11T22:32:05.141Z,101046.28
2022-12-11T22:34:31.789Z,101048.00
2022-12-11T22:36:58.368Z,101046.25
2022-12-11T22:39:25.018Z,101041.97
2022-12-11T22:41:51.583Z,101040.25
2022-12-11T22:44:20.436Z,101042.81
2022-12-11T22:46:50.301Z,101035.09
2022-12-11T22:49:18.610Z,101030.78
2022-12-11T22:54:11.829Z,101034.22
2022-12-11T22:56:38.513Z,101033.38
2022-12-11T22:59:05.015Z,101027.34
2022-12-11T23:01:31.739Z,101029.06
2022-12-11T23:03:58.124Z,101036.81
2022-12-11T23:06:25.113Z,101040.25
2022-12-11T23:08:54.889Z,101034.22
2022-12-11T23:11:25.780Z,101035.09
2022-12-11T23:13:53.075Z,101029.09
2022-12-11T23:16:20.972Z,101028.22
2022-12-11T23:18:47.349Z,101037.69
2022-12-11T23:21:14.271Z,101026.50
2022-12-11T23:23:41.228Z,101040.28
2022-12-11T23:26:10.175Z,101040.25
2022-12-11T23:28:36.861Z,101037.69
2022-12-11T23:31:04.048Z,101035.94
2022-12-11T23:33:30.590Z,101038.50
2022-12-11T23:35:57.771Z,101034.16
2022-12-11T23:38:24.202Z,101039.28
2022-12-11T23:40:50.875Z,101040.97
2022-12-11T23:43:17.354Z,101041.81
2022-12-11T23:45:45.286Z,101044.41
2022-12-11T23:48:12.706Z,101047.03
2022-12-11T23:50:41.263Z,101050.47
2022-12-11T23:53:07.850Z,101056.50
2022-12-11T23:55:34.352Z,101056.50
2022-12-11T23:58:00.769Z,101057.38
